sensor_id;sensor_type;location;lat;lon;timestamp;P1;durP1;ratioP1;P2;durP2;ratioP2
24995;SDS011;13016;52.162;21.034;2023-05-14T00:02:56;12.40;;;8.00;;
24995;SDS011;13016;52.162;21.034;2023-05-14T00:08:56;15.40;;;7.90;;
24995;SDS011;13016;52.162;21.034;2023-05-14T00:14:56;14.30;;;10.90;;
24995;SDS011;13016;52.162;21.034;2023-05-14T00:20:56;11.70;;;8.20;;
24995;SDS011;13016;52.162;21.034;2023-05-14T00:26:57;12.60;;;7.80;;
24995;SDS011;13016;52.162;21.034;2023-05-14T00:32:57;12.90;;;8.50;;
24995;SDS011;13016;52.162;21.034;2023-05-14T00:38:57;12.60;;;8.70;;
24995;SDS011;13016;52.162;21.034;2023-05-14T00:44:58;12.50;;;8.30;;
24995;SDS011;13016;52.162;21.034;2023-05-14T00:50:58;13.30;;;8.80;;
24995;SDS011;13016;52.162;21.034;2023-05-14T00:56:58;13.70;;;9.20;;
24995;SDS011;13016;52.162;21.034;2023-05-14T01:02:59;12.90;;;9.40;;
24995;SDS011;13016;52.162;21.034;2023-05-14T01:09:12;12.70;;;9.60;;
24995;SDS011;13016;52.162;21.034;2023-05-14T01:15:38;12.00;;;8.90;;
24995;SDS011;13016;52.162;21.034;2023-05-14T01:21:39;13.20;;;9.00;;
24995;SDS011;13016;52.162;21.034;2023-05-14T01:33:54;16.80;;;10.90;;
24995;SDS011;13016;52.162;21.034;2023-05-14T01:39:57;14.40;;;10.00;;
24995;SDS011;13016;52.162;21.034;2023-05-14T01:49:56;15.10;;;10.20;;
24995;SDS011;13016;52.162;21.034;2023-05-14T01:55:57;17.00;;;10.50;;
24995;SDS011;13016;52.162;21.034;2023-05-14T02:01:57;15.30;;;10.70;;
24995;SDS011;13016;52.162;21.034;2023-05-14T02:07:57;13.40;;;9.70;;
24995;SDS011;13016;52.162;21.034;2023-05-14T02:13:58;16.50;;;11.00;;
24995;SDS011;13016;52.162;21.034;2023-05-14T02:19:58;16.50;;;10.70;;
24995;SDS011;13016;52.162;21.034;2023-05-14T02:25:58;16.00;;;11.40;;
24995;SDS011;13016;52.162;21.034;2023-05-14T02:31:58;17.30;;;11.20;;
24995;SDS011;13016;52.162;21.034;2023-05-14T02:37:59;16.40;;;11.60;;
24995;SDS011;13016;52.162;21.034;2023-05-14T02:43:59;19.60;;;12.70;;
24995;SDS011;13016;52.162;21.034;2023-05-14T02:49:59;20.10;;;13.20;;
24995;SDS011;13016;52.162;21.034;2023-05-14T02:55:59;18.90;;;12.90;;
24995;SDS011;13016;52.162;21.034;2023-05-14T03:02:00;21.90;;;12.80;;
24995;SDS011;13016;52.162;21.034;2023-05-14T03:08:00;18.20;;;12.20;;
24995;SDS011;13016;52.162;21.034;2023-05-14T03:14:00;16.20;;;12.10;;
24995;SDS011;13016;52.162;21.034;2023-05-14T03:20:01;19.40;;;13.60;;
24995;SDS011;13016;52.162;21.034;2023-05-14T03:26:01;18.30;;;12.80;;
24995;SDS011;13016;52.162;21.034;2023-05-14T03:32:02;19.10;;;12.70;;
24995;SDS011;13016;52.162;21.034;2023-05-14T03:38:03;20.10;;;13.10;;
24995;SDS011;13016;52.162;21.034;2023-05-14T03:44:03;16.30;;;12.80;;
24995;SDS011;13016;52.162;21.034;2023-05-14T03:50:03;17.30;;;12.40;;
24995;SDS011;13016;52.162;21.034;2023-05-14T03:56:04;16.20;;;12.40;;
24995;SDS011;13016;52.162;21.034;2023-05-14T04:02:05;23.10;;;13.10;;
24995;SDS011;13016;52.162;21.034;2023-05-14T04:08:06;21.90;;;12.10;;
24995;SDS011;13016;52.162;21.034;2023-05-14T04:14:06;18.30;;;12.10;;
24995;SDS011;13016;52.162;21.034;2023-05-14T04:20:06;16.20;;;12.50;;
24995;SDS011;13016;52.162;21.034;2023-05-14T04:26:07;20.60;;;13.40;;
24995;SDS011;13016;52.162;21.034;2023-05-14T04:32:10;19.30;;;12.50;;
24995;SDS011;13016;52.162;21.034;2023-05-14T04:38:10;18.60;;;11.90;;
24995;SDS011;13016;52.162;21.034;2023-05-14T04:44:13;18.80;;;12.00;;
24995;SDS011;13016;52.162;21.034;2023-05-14T04:50:14;20.30;;;12.30;;
24995;SDS011;13016;52.162;21.034;2023-05-14T04:56:14;16.90;;;11.80;;
24995;SDS011;13016;52.162;21.034;2023-05-14T05:02:14;16.20;;;10.60;;
24995;SDS011;13016;52.162;21.034;2023-05-14T05:08:15;15.50;;;10.20;;
24995;SDS011;13016;52.162;21.034;2023-05-14T05:14:15;12.80;;;10.30;;
24995;SDS011;13016;52.162;21.034;2023-05-14T05:20:16;16.10;;;11.10;;
24995;SDS011;13016;52.162;21.034;2023-05-14T05:26:16;19.00;;;10.30;;
24995;SDS011;13016;52.162;21.034;2023-05-14T05:32:16;15.20;;;10.20;;
24995;SDS011;13016;52.162;21.034;2023-05-14T05:38:17;15.30;;;9.70;;
24995;SDS011;13016;52.162;21.034;2023-05-14T05:44:17;10.90;;;8.80;;
24995;SDS011;13016;52.162;21.034;2023-05-14T05:50:17;13.60;;;9.70;;
24995;SDS011;13016;52.162;21.034;2023-05-14T05:56:17;14.50;;;9.10;;
24995;SDS011;13016;52.162;21.034;2023-05-14T06:02:18;13.00;;;9.60;;
24995;SDS011;13016;52.162;21.034;2023-05-14T06:08:18;13.60;;;9.00;;
24995;SDS011;13016;52.162;21.034;2023-05-14T06:14:19;12.30;;;8.90;;
24995;SDS011;13016;52.162;21.034;2023-05-14T06:20:19;11.00;;;8.20;;
24995;SDS011;13016;52.162;21.034;2023-05-14T06:26:19;16.30;;;9.30;;
24995;SDS011;13016;52.162;21.034;2023-05-14T06:32:20;14.60;;;8.10;;
24995;SDS011;13016;52.162;21.034;2023-05-14T06:38:20;11.80;;;8.10;;
24995;SDS011;13016;52.162;21.034;2023-05-14T06:44:20;15.60;;;8.30;;
24995;SDS011;13016;52.162;21.034;2023-05-14T06:50:20;10.80;;;7.20;;
24995;SDS011;13016;52.162;21.034;2023-05-14T06:56:21;12.90;;;8.00;;
24995;SDS011;13016;52.162;21.034;2023-05-14T07:02:21;8.30;;;6.60;;
24995;SDS011;13016;52.162;21.034;2023-05-14T07:08:21;11.60;;;6.80;;
24995;SDS011;13016;52.162;21.034;2023-05-14T07:57:56;7.70;;;4.60;;
24995;SDS011;13016;52.162;21.034;2023-05-14T08:04:01;7.50;;;4.30;;
24995;SDS011;13016;52.162;21.034;2023-05-14T08:15:58;7.90;;;4.30;;
24995;SDS011;13016;52.162;21.034;2023-05-14T08:21:58;6.80;;;3.40;;
24995;SDS011;13016;52.162;21.034;2023-05-14T08:27:58;8.90;;;3.30;;
24995;SDS011;13016;52.162;21.034;2023-05-14T08:40:05;5.60;;;3.20;;
24995;SDS011;13016;52.162;21.034;2023-05-14T08:46:06;3.90;;;2.80;;
24995;SDS011;13016;52.162;21.034;2023-05-14T08:52:15;7.10;;;3.00;;
24995;SDS011;13016;52.162;21.034;2023-05-14T08:59:07;5.30;;;3.20;;
24995;SDS011;13016;52.162;21.034;2023-05-14T09:05:13;4.10;;;2.90;;
24995;SDS011;13016;52.162;21.034;2023-05-14T09:37:04;8.20;;;2.60;;
24995;SDS011;13016;52.162;21.034;2023-05-14T10:28:41;3.40;;;2.80;;
24995;SDS011;13016;52.162;21.034;2023-05-14T10:34:43;6.10;;;2.80;;
24995;SDS011;13016;52.162;21.034;2023-05-14T10:40:43;4.20;;;2.30;;
24995;SDS011;13016;52.162;21.034;2023-05-14T10:46:46;6.50;;;3.30;;
24995;SDS011;13016;52.162;21.034;2023-05-14T10:52:53;7.20;;;2.90;;
24995;SDS011;13016;52.162;21.034;2023-05-14T10:58:56;5.00;;;2.50;;
24995;SDS011;13016;52.162;21.034;2023-05-14T11:05:02;3.90;;;2.70;;
24995;SDS011;13016;52.162;21.034;2023-05-14T11:11:05;10.50;;;3.30;;
24995;SDS011;13016;52.162;21.034;2023-05-14T11:17:06;3.80;;;2.10;;
24995;SDS011;13016;52.162;21.034;2023-05-14T11:23:14;3.50;;;2.30;;
24995;SDS011;13016;52.162;21.034;2023-05-14T11:47:03;6.60;;;2.80;;
24995;SDS011;13016;52.162;21.034;2023-05-14T11:53:07;3.10;;;2.40;;
24995;SDS011;13016;52.162;21.034;2023-05-14T12:26:32;6.60;;;2.50;;
24995;SDS011;13016;52.162;21.034;2023-05-14T12:32:36;4.40;;;2.20;;
24995;SDS011;13016;52.162;21.034;2023-05-14T13:19:00;5.70;;;2.50;;
24995;SDS011;13016;52.162;21.034;2023-05-14T13:25:01;4.50;;;2.50;;
24995;SDS011;13016;52.162;21.034;2023-05-14T13:31:11;3.60;;;2.10;;
24995;SDS011;13016;52.162;21.034;2023-05-14T13:37:14;6.50;;;3.90;;
24995;SDS011;13016;52.162;21.034;2023-05-14T13:56:17;3.00;;;2.40;;
24995;SDS011;13016;52.162;21.034;2023-05-14T14:02:21;3.60;;;2.50;;
24995;SDS011;13016;52.162;21.034;2023-05-14T14:08:21;3.00;;;2.50;;
24995;SDS011;13016;52.162;21.034;2023-05-14T14:14:21;9.40;;;2.40;;
24995;SDS011;13016;52.162;21.034;2023-05-14T14:20:35;5.10;;;3.00;;
24995;SDS011;13016;52.162;21.034;2023-05-14T14:26:38;3.50;;;2.10;;
24995;SDS011;13016;52.162;21.034;2023-05-14T14:32:39;5.60;;;2.50;;
24995;SDS011;13016;52.162;21.034;2023-05-14T14:38:45;5.20;;;2.50;;
24995;SDS011;13016;52.162;21.034;2023-05-14T14:44:55;3.70;;;2.10;;
24995;SDS011;13016;52.162;21.034;2023-05-14T14:51:06;3.60;;;2.40;;
24995;SDS011;13016;52.162;21.034;2023-05-14T14:57:55;2.80;;;2.00;;
24995;SDS011;13016;52.162;21.034;2023-05-14T15:04:15;3.50;;;2.60;;
24995;SDS011;13016;52.162;21.034;2023-05-14T15:10:21;3.10;;;2.50;;
24995;SDS011;13016;52.162;21.034;2023-05-14T15:29:48;3.10;;;2.30;;
24995;SDS011;13016;52.162;21.034;2023-05-14T15:35:49;5.60;;;2.40;;
24995;SDS011;13016;52.162;21.034;2023-05-14T15:41:55;3.40;;;2.30;;
24995;SDS011;13016;52.162;21.034;2023-05-14T15:47:59;8.40;;;2.40;;
24995;SDS011;13016;52.162;21.034;2023-05-14T17:46:54;5.60;;;2.20;;
24995;SDS011;13016;52.162;21.034;2023-05-14T17:53:09;5.90;;;2.40;;
24995;SDS011;13016;52.162;21.034;2023-05-14T17:59:16;4.60;;;2.40;;
24995;SDS011;13016;52.162;21.034;2023-05-14T19:07:14;5.10;;;3.30;;
24995;SDS011;13016;52.162;21.034;2023-05-14T19:13:14;7.50;;;3.90;;
24995;SDS011;13016;52.162;21.034;2023-05-14T19:19:15;6.00;;;3.90;;
24995;SDS011;13016;52.162;21.034;2023-05-14T19:25:15;10.20;;;3.70;;
24995;SDS011;13016;52.162;21.034;2023-05-14T19:31:15;5.10;;;3.00;;
24995;SDS011;13016;52.162;21.034;2023-05-14T19:37:15;5.10;;;3.40;;
24995;SDS011;13016;52.162;21.034;2023-05-14T19:43:16;5.00;;;4.00;;
24995;SDS011;13016;52.162;21.034;2023-05-14T19:49:16;7.40;;;4.10;;
24995;SDS011;13016;52.162;21.034;2023-05-14T19:55:16;7.30;;;4.20;;
24995;SDS011;13016;52.162;21.034;2023-05-14T20:01:17;6.30;;;4.20;;
24995;SDS011;13016;52.162;21.034;2023-05-14T20:07:19;7.20;;;4.20;;
24995;SDS011;13016;52.162;21.034;2023-05-14T20:13:20;7.80;;;4.10;;
24995;SDS011;13016;52.162;21.034;2023-05-14T20:19:29;8.10;;;4.40;;
24995;SDS011;13016;52.162;21.034;2023-05-14T20:25:30;6.60;;;4.40;;
24995;SDS011;13016;52.162;21.034;2023-05-14T20:31:36;6.90;;;4.40;;
24995;SDS011;13016;52.162;21.034;2023-05-14T20:37:36;11.50;;;4.10;;
24995;SDS011;13016;52.162;21.034;2023-05-14T20:43:43;6.20;;;4.20;;
24995;SDS011;13016;52.162;21.034;2023-05-14T20:50:01;9.00;;;4.40;;
24995;SDS011;13016;52.162;21.034;2023-05-14T20:56:01;5.30;;;4.00;;
24995;SDS011;13016;52.162;21.034;2023-05-14T21:02:07;8.50;;;4.10;;
24995;SDS011;13016;52.162;21.034;2023-05-14T21:08:08;5.90;;;4.00;;
24995;SDS011;13016;52.162;21.034;2023-05-14T21:14:20;8.40;;;4.90;;
24995;SDS011;13016;52.162;21.034;2023-05-14T21:20:28;6.60;;;4.50;;
24995;SDS011;13016;52.162;21.034;2023-05-14T21:26:45;8.30;;;5.10;;
24995;SDS011;13016;52.162;21.034;2023-05-14T21:32:45;10.90;;;5.50;;
24995;SDS011;13016;52.162;21.034;2023-05-14T21:45:17;8.00;;;4.70;;
24995;SDS011;13016;52.162;21.034;2023-05-14T21:51:18;9.50;;;4.70;;
24995;SDS011;13016;52.162;21.034;2023-05-14T21:57:18;7.60;;;4.70;;
24995;SDS011;13016;52.162;21.034;2023-05-14T22:03:18;8.60;;;4.90;;
24995;SDS011;13016;52.162;21.034;2023-05-14T22:15:52;7.90;;;4.60;;
24995;SDS011;13016;52.162;21.034;2023-05-14T22:21:53;8.20;;;4.40;;
24995;SDS011;13016;52.162;21.034;2023-05-14T22:27:53;8.80;;;4.50;;
24995;SDS011;13016;52.162;21.034;2023-05-14T22:34:05;9.60;;;4.20;;
24995;SDS011;13016;52.162;21.034;2023-05-14T22:40:06;5.50;;;4.10;;
24995;SDS011;13016;52.162;21.034;2023-05-14T22:46:07;7.40;;;4.30;;
24995;SDS011;13016;52.162;21.034;2023-05-14T22:58:36;7.50;;;3.80;;
24995;SDS011;13016;52.162;21.034;2023-05-14T23:04:36;5.40;;;3.60;;
24995;SDS011;13016;52.162;21.034;2023-05-14T23:10:42;5.20;;;3.60;;
24995;SDS011;13016;52.162;21.034;2023-05-14T23:16:48;6.80;;;3.70;;
24995;SDS011;13016;52.162;21.034;2023-05-14T23:22:56;6.60;;;3.70;;
24995;SDS011;13016;52.162;21.034;2023-05-14T23:29:03;6.10;;;3.60;;
24995;SDS011;13016;52.162;21.034;2023-05-14T23:35:21;6.00;;;3.60;;
24995;SDS011;13016;52.162;21.034;2023-05-14T23:41:22;6.10;;;3.70;;
24995;SDS011;13016;52.162;21.034;2023-05-14T23:47:30;6.10;;;4.10;;
24995;SDS011;13016;52.162;21.034;2023-05-14T23:53:44;5.40;;;3.70;;
24995;SDS011;13016;52.162;21.034;2023-05-14T23:59:44;4.90;;;3.40;;
